createdAt,value
2019-03-10T00:00:21.220Z,99827.40
2019-03-10T00:02:49.622Z,99818.70
2019-03-10T00:05:18.085Z,99803.78
2019-03-10T00:07:46.568Z,99810.47
2019-03-10T00:10:15.057Z,99795.19
2019-03-10T00:12:43.459Z,99800.68
2019-03-10T00:15:12.712Z,99807.81
2019-03-10T00:17:41.244Z,99792.66
2019-03-10T00:20:10.794Z,99776.93
2019-03-10T00:22:39.327Z,99778.44
2019-03-10T00:25:09.272Z,99764.91
2019-03-10T00:27:37.812Z,99758.59
2019-03-10T00:30:14.351Z,99770.03
2019-03-10T00:32:42.893Z,99759.28
2019-03-10T00:35:11.664Z,99756.95
2019-03-10T00:37:41.033Z,99753.47
2019-03-10T00:40:36.796Z,99755.38
2019-03-10T00:43:14.083Z,99758.04
2019-03-10T00:45:48.267Z,99753.88
2019-03-10T00:48:51.844Z,99763.45
2019-03-10T00:51:42.340Z,99760.38
2019-03-10T00:54:10.737Z,99762.25
2019-03-10T00:56:39.219Z,99767.38
2019-03-10T00:59:07.616Z,99756.07
2019-03-10T01:01:36.025Z,99737.88
2019-03-10T01:04:04.505Z,99737.00
2019-03-10T01:06:33.272Z,99727.08
2019-03-10T01:09:01.763Z,99732.25
2019-03-10T01:11:30.317Z,99721.82
2019-03-10T01:13:58.785Z,99718.03
2019-03-10T01:16:27.520Z,99713.81
2019-03-10T01:18:57.168Z,99706.49
2019-03-10T01:21:27.024Z,99722.73
2019-03-10T01:23:55.477Z,99709.47
2019-03-10T01:26:23.877Z,99703.16
2019-03-10T01:28:52.275Z,99718.16
2019-03-10T01:31:29.151Z,99705.41
2019-03-10T01:34:03.426Z,99693.14
2019-03-10T01:36:30.758Z,99687.92
2019-03-10T01:38:59.219Z,99689.57
2019-03-10T01:41:27.740Z,99680.53
2019-03-10T01:43:56.305Z,99680.77
2019-03-10T01:46:24.808Z,99654.05
2019-03-10T01:48:53.214Z,99666.44
2019-03-10T01:51:21.686Z,99652.67
2019-03-10T01:53:50.107Z,99646.00
2019-03-10T01:56:18.501Z,99642.08
2019-03-10T01:58:46.905Z,99634.81
2019-03-10T02:01:15.354Z,99629.38
2019-03-10T02:03:43.768Z,99634.13
2019-03-10T02:06:12.179Z,99621.37
2019-03-10T02:08:40.600Z,99610.89
2019-03-10T02:11:09.009Z,99601.98
2019-03-10T02:13:37.438Z,99598.51
2019-03-10T02:16:05.833Z,99604.19
2019-03-10T02:18:34.260Z,99596.87
2019-03-10T02:21:02.671Z,99586.31
2019-03-10T02:23:31.234Z,99571.45
2019-03-10T02:25:59.704Z,99562.17
2019-03-10T02:28:28.089Z,99552.48
2019-03-10T02:30:56.561Z,99546.48
2019-03-10T02:33:24.963Z,99543.33
2019-03-10T02:35:53.376Z,99538.16
2019-03-10T02:38:23.402Z,99539.22
2019-03-10T02:40:51.985Z,99527.23
2019-03-10T02:43:20.393Z,99519.72
2019-03-10T02:45:48.787Z,99502.29
2019-03-10T02:48:17.200Z,99446.86
2019-03-10T02:50:45.645Z,99493.20
2019-03-10T02:53:14.042Z,99477.86
2019-03-10T02:55:42.435Z,99477.01
2019-03-10T02:58:10.823Z,99486.16
2019-03-10T03:00:39.301Z,99465.83
2019-03-10T03:03:07.705Z,99452.64
2019-03-10T03:05:36.116Z,99431.75
2019-03-10T03:08:04.647Z,99439.17
2019-03-10T03:10:33.071Z,99435.06
2019-03-10T03:13:01.465Z,99431.78
2019-03-10T03:15:30.871Z,99418.84
2019-03-10T03:17:59.393Z,99402.72
2019-03-10T03:20:27.783Z,99396.16
2019-03-10T03:22:56.186Z,99394.30
2019-03-10T03:25:24.584Z,99400.67
2019-03-10T03:27:53.087Z,99408.27
2019-03-10T03:30:21.606Z,99399.76
2019-03-10T03:32:50.039Z,99403.83
2019-03-10T03:35:36.510Z,99394.48
2019-03-10T03:38:04.913Z,99393.35
2019-03-10T03:40:33.313Z,99390.58
2019-03-10T03:43:01.743Z,99385.41
2019-03-10T03:45:30.149Z,99384.39
2019-03-10T03:47:58.557Z,99330.16
2019-03-10T03:50:27.008Z,99377.05
2019-03-10T03:52:55.433Z,99363.92
2019-03-10T03:55:23.837Z,99355.17
2019-03-10T03:57:52.261Z,99356.63
2019-03-10T04:00:20.649Z,99340.12
2019-03-10T04:02:49.063Z,99341.50
2019-03-10T04:05:17.523Z,99342.64
2019-03-10T04:07:45.995Z,99336.40
2019-03-10T04:10:14.471Z,99327.40
2019-03-10T04:12:42.933Z,99327.40
2019-03-10T04:15:11.510Z,99306.42
2019-03-10T04:17:39.935Z,99306.42
2019-03-10T04:20:09.875Z,99301.01
2019-03-10T04:22:38.280Z,99299.00
2019-03-10T04:25:07.724Z,99299.00
2019-03-10T04:27:36.163Z,99289.34
2019-03-10T04:30:06.564Z,99289.34
2019-03-10T04:32:34.959Z,99273.80
2019-03-10T04:35:03.426Z,99273.80
2019-03-10T04:37:32.080Z,99269.37
2019-03-10T04:40:00.465Z,99256.66
2019-03-10T04:42:28.979Z,99248.62
2019-03-10T04:44:57.396Z,99248.62
2019-03-10T04:47:25.784Z,99250.12
2019-03-10T04:49:54.196Z,99237.78
2019-03-10T04:52:22.584Z,99226.12
2019-03-10T04:55:01.491Z,99220.41
2019-03-10T04:57:29.899Z,99220.41
2019-03-10T04:59:58.308Z,99213.72
2019-03-10T05:02:27.579Z,99203.23
2019-03-10T05:04:55.992Z,99184.01
2019-03-10T05:07:24.416Z,99184.01
2019-03-10T05:09:52.803Z,99186.09
2019-03-10T05:12:21.202Z,99177.44
2019-03-10T05:14:49.610Z,99166.64
2019-03-10T05:17:18.038Z,99169.14
2019-03-10T05:19:46.456Z,99152.16
2019-03-10T05:22:14.842Z,99129.65
2019-03-10T05:24:43.234Z,99129.65
2019-03-10T05:27:11.624Z,99124.05
2019-03-10T05:29:40.027Z,99121.14
2019-03-10T05:32:08.431Z,99114.48
2019-03-10T05:34:36.828Z,99114.48
2019-03-10T05:37:05.223Z,99115.25
2019-03-10T05:39:33.693Z,99112.16
2019-03-10T05:42:02.086Z,99106.55
2019-03-10T05:44:30.471Z,99106.74
2019-03-10T05:46:58.878Z,99100.14
2019-03-10T05:49:27.281Z,99091.66
2019-03-10T05:51:55.677Z,99092.53
2019-03-10T05:54:24.071Z,99084.23
2019-03-10T05:56:52.594Z,99076.55
2019-03-10T05:59:20.983Z,99086.93
2019-03-10T06:03:35.071Z,99077.23
2019-03-10T06:06:03.462Z,99079.05
2019-03-10T06:08:31.860Z,99076.74
2019-03-10T06:11:00.259Z,99018.52
2019-03-10T06:13:28.658Z,99046.46
2019-03-10T06:15:57.044Z,99046.46
2019-03-10T06:18:25.433Z,99045.83
2019-03-10T06:20:53.820Z,99043.91
2019-03-10T06:23:22.218Z,99032.52
2019-03-10T06:25:50.624Z,99024.60
2019-03-10T06:28:19.007Z,99011.27
2019-03-10T06:30:47.397Z,99007.58
2019-03-10T06:33:15.895Z,99012.67
2019-03-10T06:35:44.266Z,99012.67
2019-03-10T06:38:12.661Z,99002.56
2019-03-10T06:40:41.046Z,98989.97
2019-03-10T06:43:09.528Z,98980.98
2019-03-10T06:45:38.058Z,98988.30
2019-03-10T06:48:06.591Z,98988.30
2019-03-10T06:50:35.040Z,98973.77
2019-03-10T06:53:03.435Z,98969.91
2019-03-10T06:55:31.901Z,98964.30
2019-03-10T06:58:00.292Z,98959.72
2019-03-10T07:00:28.720Z,98964.67
2019-03-10T07:02:57.099Z,98960.95
2019-03-10T07:05:25.533Z,98949.80
2019-03-10T07:07:53.948Z,98941.37
2019-03-10T07:10:22.362Z,98935.59
2019-03-10T07:12:50.739Z,98913.70
2019-03-10T07:15:19.166Z,98913.70
2019-03-10T07:17:47.568Z,98912.20
2019-03-10T07:20:20.489Z,98909.09
2019-03-10T07:22:48.877Z,98908.60
2019-03-10T07:25:17.341Z,98901.69
2019-03-10T07:27:50.058Z,98912.86
2019-03-10T07:30:32.193Z,98906.00
2019-03-10T07:33:05.056Z,98906.55
2019-03-10T07:35:40.920Z,98923.12
2019-03-10T07:38:13.804Z,98926.42
2019-03-10T07:40:55.831Z,98923.27
2019-03-10T07:43:31.968Z,98923.27
2019-03-10T07:46:18.398Z,98920.00
2019-03-10T07:49:03.488Z,98923.95
2019-03-10T07:51:42.556Z,98927.13
2019-03-10T07:54:15.378Z,98911.62
2019-03-10T07:56:45.417Z,98919.55
2019-03-10T07:59:15.489Z,98900.77
2019-03-10T08:01:51.646Z,98902.67
2019-03-10T08:04:24.764Z,98894.58
2019-03-10T08:06:54.838Z,98897.28
2019-03-10T08:09:24.878Z,98900.34
2019-03-10T08:11:54.945Z,98888.81
2019-03-10T08:14:24.991Z,98898.36
2019-03-10T08:17:00.865Z,98884.78
2019-03-10T08:19:30.902Z,98879.67
2019-03-10T08:22:00.955Z,98879.11
2019-03-10T08:24:36.716Z,98878.91
2019-03-10T08:27:18.569Z,98868.80
2019-03-10T08:29:54.301Z,98886.66
2019-03-10T08:32:30.028Z,98883.34
2019-03-10T08:35:00.326Z,98873.70
2019-03-10T08:37:36.239Z,98882.27
2019-03-10T08:40:14.837Z,98811.27
2019-03-10T08:42:49.515Z,98872.99
2019-03-10T08:45:28.228Z,98888.08
2019-03-10T08:48:04.320Z,98881.78
2019-03-10T08:50:43.281Z,98870.41
2019-03-10T08:53:29.573Z,98878.20
2019-03-10T08:56:06.056Z,98886.80
2019-03-10T08:58:51.245Z,98864.95
2019-03-10T09:01:33.364Z,98898.22
2019-03-10T09:04:11.961Z,98859.83
2019-03-10T09:06:50.763Z,98862.27
2019-03-10T09:09:35.931Z,98863.09
2019-03-10T09:12:08.540Z,98859.11
2019-03-10T09:14:54.808Z,98863.41
2019-03-10T09:17:36.674Z,98855.52
2019-03-10T09:20:17.092Z,98871.55
2019-03-10T09:22:47.134Z,98880.06
2019-03-10T09:25:17.285Z,98856.98
2019-03-10T09:27:53.291Z,98863.48
2019-03-10T09:30:23.385Z,98854.72
2019-03-10T09:33:02.335Z,98879.83
2019-03-10T09:35:32.422Z,98869.20
2019-03-10T09:38:03.700Z,98859.02
2019-03-10T09:40:48.920Z,98852.55
2019-03-10T09:43:33.937Z,98851.23
2019-03-10T09:46:09.813Z,98844.09
2019-03-10T09:48:39.841Z,98836.34
2019-03-10T09:51:25.236Z,98844.75
2019-03-10T09:54:01.634Z,98834.20
2019-03-10T09:56:34.369Z,98836.60
2019-03-10T09:59:04.411Z,98837.24
2019-03-10T10:01:40.488Z,98851.86
2019-03-10T10:04:16.612Z,98847.14
2019-03-10T10:06:52.743Z,98856.75
2019-03-10T10:09:25.378Z,98849.46
2019-03-10T10:11:58.722Z,98850.49
2019-03-10T10:14:37.943Z,98843.84
2019-03-10T10:17:19.955Z,98838.66
2019-03-10T10:19:49.970Z,98821.55
2019-03-10T10:22:28.793Z,98829.31
2019-03-10T10:24:58.903Z,98835.14
2019-03-10T10:27:31.629Z,98827.13
2019-03-10T10:30:10.361Z,98834.41
2019-03-10T10:32:40.432Z,98840.86
2019-03-10T10:35:28.045Z,98828.58
2019-03-10T10:38:04.070Z,98836.03
2019-03-10T10:40:43.349Z,98800.54
2019-03-10T10:43:16.611Z,98826.66
2019-03-10T10:45:49.508Z,98845.81
2019-03-10T10:48:31.849Z,98810.72
2019-03-10T10:51:18.330Z,98771.01
2019-03-10T10:53:54.585Z,98797.70
2019-03-10T10:56:33.690Z,98798.66
2019-03-10T10:59:06.290Z,98794.70
2019-03-10T11:01:42.475Z,98809.59
2019-03-10T11:04:12.612Z,98819.66
2019-03-10T11:06:48.578Z,98807.61
2019-03-10T11:09:36.428Z,98794.30
2019-03-10T11:12:22.851Z,98783.25
2019-03-10T11:14:52.899Z,98791.53
2019-03-10T11:17:25.995Z,98749.05
2019-03-10T11:19:56.073Z,98772.30
2019-03-10T11:22:42.252Z,98782.95
2019-03-10T11:25:12.281Z,98756.23
2019-03-10T11:27:48.426Z,98805.58
2019-03-10T11:30:24.861Z,98755.77
2019-03-10T11:33:13.265Z,98761.48
2019-03-10T11:35:43.395Z,98723.38
2019-03-10T11:38:16.151Z,98759.84
2019-03-10T11:40:58.267Z,98746.81
2019-03-10T11:43:28.372Z,98740.09
2019-03-10T11:46:18.430Z,98750.73
2019-03-10T11:48:54.296Z,98725.02
2019-03-10T11:51:24.347Z,98770.09
2019-03-10T11:54:08.931Z,98760.76
2019-03-10T11:56:44.756Z,98733.45
2019-03-10T11:59:20.297Z,98751.25
2019-03-10T12:01:53.527Z,98739.27
2019-03-10T12:04:23.594Z,98777.86
2019-03-10T12:06:53.798Z,98749.13
2019-03-10T12:09:21.515Z,98736.37
2019-03-10T12:11:50.153Z,98746.36
2019-03-10T12:14:18.699Z,98723.50
2019-03-10T12:16:47.240Z,98729.65
2019-03-10T12:19:15.742Z,98722.92
2019-03-10T12:21:44.291Z,98700.70
2019-03-10T12:24:12.784Z,98717.56
2019-03-10T12:26:41.255Z,98731.21
2019-03-10T12:29:09.730Z,98739.48
2019-03-10T12:31:38.157Z,98734.16
2019-03-10T12:34:06.565Z,98728.66
2019-03-10T12:36:35.146Z,98735.88
2019-03-10T12:39:05.123Z,98739.28
2019-03-10T12:41:33.555Z,98751.23
2019-03-10T12:44:01.949Z,98758.20
2019-03-10T12:46:30.556Z,98764.23
2019-03-10T12:48:58.976Z,98762.48
2019-03-10T12:51:27.401Z,98789.94
2019-03-10T12:53:55.839Z,98794.70
2019-03-10T12:56:24.305Z,98801.11
2019-03-10T12:58:52.724Z,98777.41
2019-03-10T13:01:21.202Z,98803.65
2019-03-10T13:03:58.352Z,98805.09
2019-03-10T13:06:19.902Z,98805.10
2019-03-10T13:08:48.343Z,98807.38
2019-03-10T13:11:16.777Z,98812.75
2019-03-10T13:13:45.275Z,98781.30
2019-03-10T13:16:13.843Z,98783.47
2019-03-10T13:18:42.327Z,98798.59
2019-03-10T13:21:10.719Z,98795.13
2019-03-10T13:23:39.149Z,98799.97
2019-03-10T13:26:07.616Z,98784.42
2019-03-10T13:28:36.057Z,98768.50
2019-03-10T13:31:04.558Z,98781.81
2019-03-10T13:33:32.963Z,98776.86
2019-03-10T13:36:01.358Z,98790.13
2019-03-10T13:38:29.818Z,98774.53
2019-03-10T13:40:58.268Z,98792.73
2019-03-10T13:43:26.733Z,98793.12
2019-03-10T13:45:55.252Z,98804.33
2019-03-10T13:48:23.641Z,98802.16
2019-03-10T13:50:52.025Z,98806.90
2019-03-10T13:53:20.455Z,98840.72
2019-03-10T13:55:48.989Z,98841.13
2019-03-10T13:58:17.363Z,98816.25
2019-03-10T14:00:45.866Z,98824.35
2019-03-10T14:03:14.304Z,98836.52
2019-03-10T14:05:42.789Z,98822.88
2019-03-10T14:08:11.274Z,98827.37
2019-03-10T14:10:39.848Z,98830.22
2019-03-10T14:13:08.413Z,98831.84
2019-03-10T14:15:36.870Z,98860.30
2019-03-10T14:18:05.424Z,98879.50
2019-03-10T14:20:33.924Z,98871.63
2019-03-10T14:23:02.342Z,98867.22
2019-03-10T14:25:30.827Z,98887.06
2019-03-10T14:27:59.353Z,98873.80
2019-03-10T14:30:27.843Z,98906.41
2019-03-10T14:32:56.391Z,98888.41
2019-03-10T14:35:24.813Z,98907.66
2019-03-10T14:37:53.316Z,98889.16
2019-03-10T14:40:22.343Z,98908.28
2019-03-10T14:42:50.840Z,98911.37
2019-03-10T14:45:19.867Z,98913.22
2019-03-10T14:47:48.448Z,98931.02
2019-03-10T14:50:20.401Z,98932.70
2019-03-10T14:52:48.908Z,98953.02
2019-03-10T14:55:21.348Z,98957.69
2019-03-10T14:57:49.832Z,98961.83
2019-03-10T15:00:23.391Z,98999.48
2019-03-10T15:02:51.907Z,98978.66
2019-03-10T15:05:20.650Z,99015.78
2019-03-10T15:07:49.068Z,99042.41
2019-03-10T15:10:17.914Z,99014.05
2019-03-10T15:12:46.410Z,99036.42
2019-03-10T15:15:22.313Z,99031.38
2019-03-10T15:17:46.617Z,99050.06
2019-03-10T15:20:16.172Z,99029.09
2019-03-10T15:22:44.682Z,99025.84
2019-03-10T15:25:20.750Z,99058.07
2019-03-10T15:27:49.197Z,99057.03
2019-03-10T15:30:20.009Z,99068.00
2019-03-10T15:32:48.400Z,99066.85
2019-03-10T15:35:16.888Z,99093.69
2019-03-10T15:37:45.272Z,99089.67
2019-03-10T15:40:16.750Z,99082.91
2019-03-10T15:42:45.592Z,99091.42
2019-03-10T15:45:15.125Z,99106.58
2019-03-10T15:47:43.708Z,99103.78
2019-03-10T15:50:20.660Z,99102.29
2019-03-10T15:52:49.158Z,99121.53
2019-03-10T15:55:17.631Z,99131.79
2019-03-10T15:57:50.263Z,99139.77
2019-03-10T16:00:18.421Z,99101.17
2019-03-10T16:02:46.982Z,99148.25
2019-03-10T16:05:15.736Z,99150.04
2019-03-10T16:07:44.312Z,99168.22
2019-03-10T16:10:13.992Z,99172.33
2019-03-10T16:12:42.451Z,99161.91
2019-03-10T16:15:13.941Z,99170.70
2019-03-10T16:17:42.423Z,99170.48
2019-03-10T16:20:12.817Z,99189.05
2019-03-10T16:22:41.231Z,99231.47
2019-03-10T16:25:14.086Z,99226.69
2019-03-10T16:27:42.742Z,99246.27
2019-03-10T16:30:22.037Z,99252.63
2019-03-10T16:32:50.602Z,99270.36
2019-03-10T16:35:19.192Z,99279.56
2019-03-10T16:37:47.706Z,99243.91
2019-03-10T16:40:17.414Z,99274.63
2019-03-10T16:42:45.959Z,99287.50
2019-03-10T16:45:27.290Z,99285.56
2019-03-10T16:47:57.666Z,99282.48
2019-03-10T16:50:26.971Z,99290.19
2019-03-10T16:52:55.555Z,99278.02
2019-03-10T16:55:24.022Z,99273.45
2019-03-10T16:57:52.542Z,99272.83
2019-03-10T17:00:23.475Z,99267.83
2019-03-10T17:02:52.356Z,99262.13
2019-03-10T17:05:21.699Z,99289.08
2019-03-10T17:07:50.296Z,99295.94
2019-03-10T17:10:23.563Z,99299.12
2019-03-10T17:12:52.034Z,99315.42
2019-03-10T17:15:25.271Z,99313.06
2019-03-10T17:17:53.953Z,99325.69
2019-03-10T17:20:22.502Z,99324.59
2019-03-10T17:22:51.386Z,99333.06
2019-03-10T17:25:19.931Z,99330.48
2019-03-10T17:27:48.517Z,99330.06
2019-03-10T17:30:25.023Z,99341.61
2019-03-10T17:32:53.390Z,99339.86
2019-03-10T17:35:22.239Z,99321.17
2019-03-10T17:37:50.731Z,99332.18
2019-03-10T17:40:23.704Z,99328.00
2019-03-10T17:42:52.195Z,99352.39
2019-03-10T17:45:23.648Z,99342.70
2019-03-10T17:47:52.224Z,99334.44
2019-03-10T17:50:20.884Z,99346.27
2019-03-10T17:52:50.055Z,99346.34
2019-03-10T17:55:20.572Z,99368.89
2019-03-10T17:57:53.010Z,99365.11
2019-03-10T18:00:26.490Z,99381.95
2019-03-10T18:02:54.997Z,99402.94
2019-03-10T18:05:23.483Z,99439.73
2019-03-10T18:07:52.074Z,99448.34
2019-03-10T18:10:20.534Z,99465.58
2019-03-10T18:12:49.018Z,99475.52
2019-03-10T18:15:18.417Z,99539.59
2019-03-10T18:17:46.880Z,99524.57
2019-03-10T18:20:20.075Z,99530.41
2019-03-10T18:22:48.570Z,99545.91
2019-03-10T18:25:17.134Z,99564.69
2019-03-10T18:27:45.659Z,99564.69
2019-03-10T18:30:20.001Z,99579.81
2019-03-10T18:32:48.557Z,99576.31
2019-03-10T18:35:17.178Z,99576.31
2019-03-10T18:37:45.698Z,99593.45
2019-03-10T18:40:22.664Z,99580.36
2019-03-10T18:42:51.076Z,99580.36
2019-03-10T18:45:20.544Z,99581.73
2019-03-10T18:47:49.082Z,99589.43
2019-03-10T18:50:20.625Z,99599.44
2019-03-10T18:52:49.158Z,99604.09
2019-03-10T18:55:18.607Z,99595.72
2019-03-10T18:57:47.138Z,99613.15
2019-03-10T19:00:30.214Z,99639.74
2019-03-10T19:02:58.774Z,99616.48
2019-03-10T19:05:27.301Z,99619.64
2019-03-10T19:07:55.835Z,99633.67
2019-03-10T19:10:24.298Z,99631.19
2019-03-10T19:12:52.710Z,99644.94
2019-03-10T19:15:22.365Z,99648.91
2019-03-10T19:17:50.911Z,99646.76
2019-03-10T19:20:19.360Z,99650.23
2019-03-10T19:22:47.816Z,99649.41
2019-03-10T19:25:16.973Z,99656.70
2019-03-10T19:27:45.725Z,99643.70
2019-03-10T19:30:22.018Z,99654.92
2019-03-10T19:32:50.510Z,99663.34
2019-03-10T19:35:19.082Z,99675.08
2019-03-10T19:37:48.161Z,99673.59
2019-03-10T19:40:20.411Z,99676.56
2019-03-10T19:42:48.917Z,99678.22
2019-03-10T19:45:20.944Z,99681.23
2019-03-10T19:47:49.621Z,99690.64
2019-03-10T19:50:20.707Z,99686.64
2019-03-10T19:52:49.206Z,99681.69
2019-03-10T19:55:17.671Z,99681.52
2019-03-10T19:57:46.301Z,99689.61
2019-03-10T20:00:16.442Z,99697.20
2019-03-10T20:02:44.930Z,99692.79
2019-03-10T20:05:14.134Z,99704.35
2019-03-10T20:07:43.100Z,99716.23
2019-03-10T20:10:13.915Z,99713.76
2019-03-10T20:12:42.454Z,99719.70
2019-03-10T20:15:18.943Z,99729.27
2019-03-10T20:17:47.406Z,99738.02
2019-03-10T20:20:17.297Z,99737.01
2019-03-10T20:22:45.752Z,99746.91
2019-03-10T20:25:17.008Z,99749.91
2019-03-10T20:27:45.465Z,99769.55
2019-03-10T20:30:16.491Z,99766.58
2019-03-10T20:32:45.034Z,99783.05
2019-03-10T20:35:13.499Z,99796.61
2019-03-10T20:37:41.964Z,99795.59
2019-03-10T20:40:15.740Z,99810.64
2019-03-10T20:42:44.232Z,99809.33
2019-03-10T20:45:13.003Z,99819.05
2019-03-10T20:47:41.622Z,99807.67
2019-03-10T20:50:15.600Z,99814.92
2019-03-10T20:52:44.229Z,99836.22
2019-03-10T20:55:13.470Z,99839.19
2019-03-10T20:57:42.206Z,99837.53
2019-03-10T21:03:34.762Z,99837.86
2019-03-10T21:06:03.189Z,99853.89
2019-03-10T21:08:31.601Z,99859.34
2019-03-10T21:11:00.014Z,99872.19
2019-03-10T21:13:28.463Z,99872.03
2019-03-10T21:15:56.867Z,99879.30
2019-03-10T21:18:25.273Z,99878.66
2019-03-10T21:20:53.702Z,99872.20
2019-03-10T21:25:51.041Z,99887.06
2019-03-10T21:28:19.659Z,99883.74
2019-03-10T21:30:48.174Z,99887.37
2019-03-10T21:33:16.739Z,99892.66
2019-03-10T21:35:45.549Z,99900.09
2019-03-10T21:38:14.076Z,99911.95
2019-03-10T21:40:42.490Z,99907.33
2019-03-10T21:43:11.054Z,99913.42
2019-03-10T21:45:39.484Z,99906.98
2019-03-10T21:48:08.011Z,99912.91
2019-03-10T21:50:36.391Z,99926.92
2019-03-10T21:53:04.851Z,99917.20
2019-03-10T21:55:33.340Z,99914.58
2019-03-10T21:58:01.831Z,99919.66
2019-03-10T22:00:30.318Z,99922.95
2019-03-10T22:02:58.757Z,99927.02
2019-03-10T22:05:27.150Z,99938.91
2019-03-10T22:07:55.608Z,99929.49
2019-03-10T22:10:27.451Z,99946.97
2019-03-10T22:12:54.174Z,99944.61
2019-03-10T22:15:22.724Z,99954.83
2019-03-10T22:17:51.152Z,99956.81
2019-03-10T22:20:20.271Z,99968.52
2019-03-10T22:22:50.106Z,99970.64
2019-03-10T22:25:18.619Z,99980.06
2019-03-10T22:27:47.280Z,99982.52
2019-03-10T22:30:19.866Z,99978.03
2019-03-10T22:32:48.455Z,99983.13
2019-03-10T22:35:17.047Z,99993.98
2019-03-10T22:37:45.654Z,99989.84
2019-03-10T22:40:15.627Z,99992.66
2019-03-10T22:42:44.251Z,99996.13
2019-03-10T22:45:21.084Z,99988.37
2019-03-10T22:47:49.544Z,99995.63
2019-03-10T22:50:18.003Z,99995.91
2019-03-10T22:52:46.736Z,99997.52
2019-03-10T22:55:15.891Z,100007.73
2019-03-10T22:57:44.438Z,100005.20
2019-03-10T23:00:18.453Z,100008.52
2019-03-10T23:02:46.907Z,100006.52
2019-03-10T23:05:15.362Z,100018.04
2019-03-10T23:07:43.889Z,100031.25
2019-03-10T23:10:15.892Z,100037.01
2019-03-10T23:12:44.319Z,100035.99
2019-03-10T23:15:13.986Z,100040.70
2019-03-10T23:17:42.445Z,100043.17
2019-03-10T23:20:13.928Z,100044.30
2019-03-10T23:22:42.398Z,100048.70
2019-03-10T23:25:11.151Z,100057.22
2019-03-10T23:27:39.797Z,100056.84
2019-03-10T23:30:13.855Z,100063.86
2019-03-10T23:32:42.330Z,100058.24
2019-03-10T23:35:10.796Z,100061.85
2019-03-10T23:37:39.188Z,100065.61
2019-03-10T23:40:10.094Z,100069.85
2019-03-10T23:42:38.559Z,100068.05
2019-03-10T23:45:09.709Z,100055.08
2019-03-10T23:47:38.136Z,100054.88
2019-03-10T23:50:08.376Z,100059.94
2019-03-10T23:52:36.779Z,100057.74
2019-03-10T23:55:07.239Z,100051.44
2019-03-10T23:57:35.645Z,100053.48
